Time;durP1;ratioP1;P1;durP2;ratioP2;P2;SDS_P1;SDS_P2;PMS_P1;PMS_P2;Temp;Humidity;BMP_temperature;BMP_pressure;BME280_temperature;BME280_humidity;BME280_pressure;Samples;Min_cycle;Max_cycle;Signal;HPM_P1;HPM_P2
2022/07/27 05:24:28;;;;;;;15.75;7.30;;;;;;;21.12;72.87;99681.13;1679566;83;21185;-49
2022/07/27 05:26:56;;;;;;;18.67;8.63;;;;;;;21.31;72.59;99686.82;1741124;80;21043;-43
2022/07/27 05:29:24;;;;;;;20.60;9.30;;;;;;;21.37;72.11;99679.36;1748590;80;21074;-43
2022/07/27 05:31:51;;;;;;;15.35;7.70;;;;;;;21.47;71.73;99690.38;1722544;81;21014;-49
2022/07/27 05:34:18;;;;;;;15.25;7.75;;;;;;;21.56;71.22;99687.20;1720390;81;21718;-49
2022/07/27 05:36:45;;;;;;;9.23;6.62;;;;;;;21.66;70.52;99685.75;1675514;84;20997;-43
2022/07/27 05:39:12;;;;;;;8.73;6.95;;;;;;;21.74;70.28;99683.98;1760113;81;21561;-45
2022/07/27 05:41:40;;;;;;;8.55;6.90;;;;;;;21.83;69.76;99683.48;1689971;83;21668;-49
2022/07/27 05:44:08;;;;;;;7.55;6.55;;;;;;;21.93;69.39;99677.19;1668971;85;21058;-49
2022/07/27 05:46:35;;;;;;;8.93;6.45;;;;;;;22.04;69.56;99683.62;1750237;81;21510;-49
2022/07/27 05:49:03;;;;;;;12.37;7.15;;;;;;;22.16;69.17;99682.57;1740135;81;21101;-43
2022/07/27 05:51:30;;;;;;;12.90;6.85;;;;;;;22.30;68.94;99687.95;1743640;81;21010;-49
2022/07/27 05:53:58;;;;;;;11.53;6.40;;;;;;;22.45;68.08;99692.39;1743809;81;21061;-49
2022/07/27 05:56:26;;;;;;;12.73;7.30;;;;;;;22.60;67.57;99687.95;1741173;81;20996;-43
2022/07/27 05:58:53;;;;;;;7.97;6.03;;;;;;;22.75;67.21;99691.05;1757877;81;21055;-49
2022/07/27 06:01:19;;;;;;;8.40;3.95;;;;;;;22.91;66.93;99700.84;1755568;81;21020;-43
2022/07/27 06:03:46;;;;;;;4.85;3.58;;;;;;;23.05;65.33;99695.52;1745508;81;21105;-49
2022/07/27 06:08:58;;;;;;;12.98;4.20;;;;;;;23.31;64.22;99694.80;1755852;81;21032;-43
2022/07/27 06:11:25;;;;;;;4.85;3.25;;;;;;;23.49;63.71;99689.26;1756128;81;21571;-43
2022/07/27 06:13:51;;;;;;;6.45;3.60;;;;;;;23.63;62.36;99690.60;1744323;81;21133;-49
2022/07/27 06:16:18;;;;;;;7.60;4.20;;;;;;;23.71;61.17;99690.95;1739878;81;21516;-43
2022/07/27 06:18:45;;;;;;;5.35;3.30;;;;;;;23.76;60.88;99682.18;1762483;80;21542;-43
2022/07/27 06:21:12;;;;;;;4.30;3.12;;;;;;;23.84;60.24;99688.38;1753749;81;21495;-43
2022/07/27 06:23:40;;;;;;;4.37;3.33;;;;;;;23.92;59.76;99684.73;1760482;80;21046;-44
2022/07/27 06:26:06;;;;;;;4.67;3.00;;;;;;;24.03;60.01;99688.90;1764417;81;21002;-48
2022/07/27 06:28:33;;;;;;;7.25;3.65;;;;;;;24.14;58.68;99677.52;1765111;81;21014;-49
2022/07/27 06:31:00;;;;;;;3.33;2.72;;;;;;;24.22;57.22;99675.18;1764844;81;20970;-48
2022/07/27 06:33:27;;;;;;;7.42;3.42;;;;;;;24.29;56.03;99671.62;1764138;81;20980;-48
2022/07/27 06:35:54;;;;;;;8.73;2.77;;;;;;;24.33;55.72;99665.12;1763371;81;20995;-49
2022/07/27 06:38:22;;;;;;;3.77;2.62;;;;;;;24.40;56.33;99669.12;1770885;80;21495;-49
2022/07/27 06:40:51;;;;;;;3.90;2.42;;;;;;;24.52;56.52;99671.45;1770772;80;21070;-49
2022/07/27 06:43:20;;;;;;;3.67;2.72;;;;;;;24.66;55.14;99678.08;1753273;80;21052;-49
2022/07/27 06:45:47;;;;;;;8.43;2.77;;;;;;;24.75;54.06;99675.23;1762480;81;21049;-49
2022/07/27 06:48:14;;;;;;;5.55;3.35;;;;;;;24.82;54.35;99670.73;1760746;80;21541;-43
2022/07/27 06:50:42;;;;;;;7.15;2.58;;;;;;;24.91;54.46;99672.75;1762832;81;21569;-43
2022/07/27 06:53:08;;;;;;;11.55;3.30;;;;;;;25.04;54.03;99679.44;1755363;81;20998;-43
2022/07/27 06:55:35;;;;;;;3.65;2.30;;;;;;;25.15;53.64;99671.55;1776372;81;21092;-43
2022/07/27 06:58:03;;;;;;;4.75;2.60;;;;;;;25.23;53.51;99682.22;1768081;81;21702;-49
2022/07/27 07:00:30;;;;;;;3.35;2.85;;;;;;;25.27;52.53;99679.69;1760552;81;21061;-47
2022/07/27 07:03:02;;;;;;;6.03;2.40;;;;;;;25.22;52.97;99678.66;1758325;80;21013;-43
2022/07/27 07:05:30;;;;;;;11.63;3.00;;;;;;;25.24;52.23;99680.77;1780943;79;21096;-41
2022/07/27 07:07:57;;;;;;;4.25;2.72;;;;;;;25.29;52.32;99677.29;1772480;79;20976;-49
2022/07/27 07:10:25;;;;;;;2.27;2.08;;;;;;;25.33;51.76;99683.27;1705917;82;21543;-49
2022/07/27 07:12:54;;;;;;;4.67;2.25;;;;;;;25.36;51.49;99684.41;1735688;80;20972;-49
2022/07/27 07:15:23;;;;;;;3.80;2.37;;;;;;;25.42;51.92;99685.30;1741569;80;21092;-49
2022/07/27 07:17:53;;;;;;;4.70;2.42;;;;;;;25.46;51.52;99690.34;1767565;80;21009;-49
2022/07/27 07:20:19;;;;;;;2.33;2.20;;;;;;;25.52;51.23;99690.39;1771713;79;21041;-49
2022/07/27 07:22:46;;;;;;;4.40;2.05;;;;;;;25.56;50.56;99689.66;1767713;80;21489;-49
2022/07/27 07:25:13;;;;;;;3.22;2.30;;;;;;;25.61;50.35;99691.53;1761079;80;21045;-49
2022/07/27 07:27:39;;;;;;;6.05;2.72;;;;;;;25.67;50.28;99693.77;1757474;80;20990;-49
2022/07/27 07:30:08;;;;;;;2.87;2.27;;;;;;;25.74;50.55;99701.77;1763331;80;21061;-49
2022/07/27 07:32:34;;;;;;;2.27;2.08;;;;;;;25.82;50.22;99693.20;1693517;84;22593;-49
2022/07/27 07:35:02;;;;;;;6.85;2.45;;;;;;;25.92;49.99;99691.08;1700911;82;21589;-49
2022/07/27 07:37:31;;;;;;;6.42;2.60;;;;;;;26.02;49.74;99689.89;1761417;80;21474;-49
2022/07/27 07:39:58;;;;;;;5.45;2.40;;;;;;;26.14;49.01;99689.48;1766180;79;20990;-49
2022/07/27 07:42:25;;;;;;;2.62;2.00;;;;;;;26.17;48.97;99692.80;1764007;80;21286;-49
2022/07/27 07:44:52;;;;;;;3.87;1.98;;;;;;;26.18;48.21;99685.61;1768668;79;21335;-50
2022/07/27 07:47:18;;;;;;;2.55;2.35;;;;;;;26.22;48.53;99690.64;1770833;79;21560;-49
2022/07/27 07:49:45;;;;;;;2.65;2.35;;;;;;;26.26;48.17;99689.41;1757601;80;21010;-49
2022/07/27 07:52:12;;;;;;;7.75;2.27;;;;;;;26.17;47.94;99686.59;1758221;80;21041;-49
2022/07/27 07:54:38;;;;;;;5.35;2.40;;;;;;;26.06;48.33;99686.52;1753824;79;21537;-49
2022/07/27 07:57:05;;;;;;;4.60;2.50;;;;;;;25.95;48.50;99682.80;1695026;82;21017;-49
2022/07/27 07:59:33;;;;;;;5.05;2.30;;;;;;;25.94;48.58;99686.45;1761386;80;21380;-49
2022/07/27 08:02:02;;;;;;;3.50;2.58;;;;;;;25.98;48.13;99685.27;1701203;82;21415;-49
2022/07/27 08:04:29;;;;;;;2.60;2.40;;;;;;;26.06;47.56;99686.03;1694535;84;21008;-49
2022/07/27 08:06:55;;;;;;;6.97;2.98;;;;;;;26.12;47.12;99688.26;1757902;79;20973;-49
2022/07/27 08:09:25;;;;;;;2.70;2.35;;;;;;;26.11;46.91;99682.53;1763496;80;21037;-49
2022/07/27 08:11:51;;;;;;;4.03;2.25;;;;;;;26.18;47.39;99681.59;1756053;81;21081;-49
2022/07/27 08:14:18;;;;;;;2.60;2.40;;;;;;;26.34;46.19;99679.97;1761800;81;21077;-50
2022/07/27 08:16:44;;;;;;;3.37;2.30;;;;;;;26.44;46.30;99684.56;1754492;80;21055;-49
2022/07/27 08:19:13;;;;;;;3.10;2.50;;;;;;;26.59;46.44;99685.21;1760812;81;21048;-49
2022/07/27 08:21:41;;;;;;;6.47;3.35;;;;;;;26.64;46.09;99693.77;1765118;79;20978;-49
2022/07/27 08:24:08;;;;;;;3.47;2.40;;;;;;;26.47;46.58;99687.00;1759677;81;21005;-49
2022/07/27 08:26:34;;;;;;;2.80;2.10;;;;;;;26.32;46.66;99691.27;1760444;80;20990;-49
2022/07/27 08:29:01;;;;;;;5.95;2.62;;;;;;;26.18;46.85;99683.78;1764347;80;21092;-49
2022/07/27 08:31:28;;;;;;;2.58;2.33;;;;;;;26.26;47.60;99689.41;1766262;80;20974;-49
2022/07/27 08:33:55;;;;;;;2.60;2.20;;;;;;;26.47;47.39;99692.84;1763847;81;21489;-49
2022/07/27 08:36:22;;;;;;;3.70;2.42;;;;;;;26.72;46.19;99698.05;1763767;81;20988;-49
2022/07/27 08:38:48;;;;;;;2.33;2.12;;;;;;;26.92;45.78;99688.98;1762870;81;21501;-49
2022/07/27 08:41:15;;;;;;;2.33;2.10;;;;;;;27.12;44.02;99695.50;1761796;80;20985;-49
2022/07/27 08:43:45;;;;;;;5.25;2.02;;;;;;;27.25;43.75;99686.84;1765614;80;21091;-49
2022/07/27 08:46:12;;;;;;;2.75;2.12;;;;;;;27.38;44.08;99687.61;1764758;81;21473;-49
2022/07/27 08:48:39;;;;;;;3.72;2.37;;;;;;;27.44;43.94;99688.46;1727645;81;21057;-49
2022/07/27 08:51:06;;;;;;;2.45;2.20;;;;;;;27.56;43.91;99685.28;1765359;81;21005;-49
2022/07/27 08:53:33;;;;;;;2.42;2.22;;;;;;;27.69;44.05;99680.66;1765266;80;21016;-47
2022/07/27 08:56:00;;;;;;;3.00;2.33;;;;;;;27.84;44.15;99675.89;1763292;80;20974;-47
2022/07/27 08:58:28;;;;;;;5.17;2.22;;;;;;;27.91;43.36;99685.16;1763928;81;20901;-49
2022/07/27 09:00:55;;;;;;;2.30;1.95;;;;;;;27.73;43.69;99677.25;1764441;81;21520;-49
2022/07/27 09:03:22;;;;;;;2.70;2.45;;;;;;;27.47;43.95;99676.11;1765112;80;20980;-49
2022/07/27 09:05:54;;;;;;;3.42;1.98;;;;;;;27.28;44.22;99672.70;1764583;81;21488;-49
2022/07/27 09:08:26;;;;;;;2.62;2.30;;;;;;;27.26;44.87;99677.34;1727819;82;20962;-49
2022/07/27 09:10:55;;;;;;;3.62;2.50;;;;;;;27.44;44.68;99676.38;1735549;82;21540;-49
2022/07/27 09:13:32;;;;;;;2.65;2.45;;;;;;;27.64;44.72;99677.94;1760049;80;21562;-49
2022/07/27 09:16:02;;;;;;;3.75;2.10;;;;;;;27.79;43.63;99669.53;1760328;81;21490;-48
2022/07/27 09:18:32;;;;;;;7.97;2.22;;;;;;;27.88;43.47;99680.02;1762976;81;20980;-48
2022/07/27 09:21:17;;;;;;;3.42;2.00;;;;;;;27.94;42.91;99674.63;1763060;81;21600;-48
2022/07/27 09:23:48;;;;;;;3.52;2.02;;;;;;;28.00;42.82;99669.59;1764821;81;21817;-48
2022/07/27 09:26:26;;;;;;;4.12;1.92;;;;;;;28.02;42.95;99666.80;1763172;80;20974;-48
2022/07/27 09:28:57;;;;;;;4.42;1.98;;;;;;;28.02;42.56;99670.34;1756633;80;21473;-48
2022/07/27 09:31:25;;;;;;;4.58;1.92;;;;;;;28.10;42.66;99668.36;1759967;80;21109;-48
2022/07/27 09:33:55;;;;;;;3.00;1.92;;;;;;;28.24;42.44;99666.73;1766269;80;21011;-48
2022/07/27 09:36:23;;;;;;;3.95;2.33;;;;;;;28.31;42.75;99668.42;1762912;80;20987;-48
2022/07/27 09:38:58;;;;;;;4.33;2.27;;;;;;;28.35;42.23;99669.88;1759082;79;21084;-48
2022/07/27 09:41:24;;;;;;;5.65;1.90;;;;;;;28.31;42.15;99668.42;1763976;78;21520;-47
2022/07/27 09:43:53;;;;;;;2.20;2.00;;;;;;;28.29;42.34;99672.56;1740345;80;21052;-48
2022/07/27 09:46:32;;;;;;;5.70;2.10;;;;;;;28.36;42.47;99674.30;1758236;80;20997;-48
2022/07/27 09:48:59;;;;;;;2.30;2.10;;;;;;;28.35;41.19;99671.23;1755653;79;21021;-48
2022/07/27 09:51:28;;;;;;;3.65;2.22;;;;;;;28.32;42.80;99672.35;1753068;79;21009;-48
2022/07/27 09:53:56;;;;;;;2.95;2.10;;;;;;;28.40;42.96;99670.36;1753762;79;21013;-48
2022/07/27 09:56:29;;;;;;;2.90;2.10;;;;;;;28.49;42.76;99661.53;1758921;81;21057;-46
2022/07/27 09:58:57;;;;;;;;;;;;;;;28.61;41.98;99665.86;1742720;80;21041;-48
2022/07/27 10:01:33;;;;;;;2.27;1.95;;;;;;;28.72;41.92;99671.69;1771373;80;20129;-48
2022/07/27 10:04:05;;;;;;;2.15;1.98;;;;;;;28.79;41.92;99670.16;1766962;81;21930;-48
2022/07/27 10:06:32;;;;;;;2.45;2.20;;;;;;;28.86;40.45;99668.65;1771646;80;21489;-47
2022/07/27 10:08:59;;;;;;;2.47;2.27;;;;;;;28.88;40.72;99668.54;1767836;81;21037;-48
2022/07/27 10:11:26;;;;;;;2.10;1.90;;;;;;;28.94;39.51;99677.47;1767644;81;21045;-48
2022/07/27 10:13:55;;;;;;;2.47;1.98;;;;;;;28.85;39.55;99673.67;1767791;81;21541;-48
2022/07/27 10:16:30;;;;;;;5.67;2.40;;;;;;;28.77;39.37;99669.95;1767531;81;21046;-48
2022/07/27 10:19:19;;;;;;;1.70;1.60;;;;;;;28.80;39.41;99670.52;1768036;81;21423;-47
2022/07/27 10:21:46;;;;;;;2.02;1.70;;;;;;;28.90;39.10;99663.38;1767877;81;21057;-47
2022/07/27 10:24:35;;;;;;;2.27;1.62;;;;;;;29.02;39.80;99664.19;1769009;81;21112;-48
